createdAt,value
2018-02-13T00:00:07.857Z,0.00
2018-02-13T00:01:07.836Z,0.00
2018-02-13T00:02:07.808Z,0.00
2018-02-13T00:03:07.789Z,0.00
2018-02-13T00:04:07.765Z,0.00
2018-02-13T00:05:07.741Z,0.00
2018-02-13T00:06:07.719Z,0.00
2018-02-13T00:07:07.687Z,0.00
2018-02-13T00:08:07.668Z,0.00
2018-02-13T00:09:07.644Z,0.00
2018-02-13T00:10:07.625Z,0.00
2018-02-13T00:11:07.603Z,0.00
2018-02-13T00:12:07.574Z,0.00
2018-02-13T00:13:07.549Z,0.00
2018-02-13T00:14:07.526Z,0.00
2018-02-13T00:15:07.511Z,0.00
2018-02-13T00:16:07.477Z,0.00
2018-02-13T00:17:07.447Z,0.00
2018-02-13T00:18:07.426Z,0.00
2018-02-13T00:19:07.400Z,0.00
2018-02-13T00:20:07.378Z,0.00
2018-02-13T00:21:07.357Z,0.00
2018-02-13T00:22:07.329Z,0.00
2018-02-13T00:23:07.320Z,0.00
2018-02-13T00:24:07.282Z,0.00
2018-02-13T00:25:07.258Z,0.00
2018-02-13T00:26:07.237Z,0.00
2018-02-13T00:27:07.214Z,0.00
2018-02-13T00:28:07.185Z,0.00
2018-02-13T00:29:07.166Z,0.00
2018-02-13T00:30:07.138Z,0.00
2018-02-13T00:31:07.112Z,0.00
2018-02-13T00:32:07.093Z,0.00
2018-02-13T00:33:07.067Z,0.00
2018-02-13T00:34:07.048Z,0.00
2018-02-13T00:35:07.017Z,0.00
2018-02-13T00:36:07.001Z,0.00
2018-02-13T00:37:06.973Z,0.00
2018-02-13T00:38:06.947Z,0.00
2018-02-13T00:39:06.927Z,0.00
2018-02-13T00:40:06.902Z,0.00
2018-02-13T00:41:06.877Z,0.00
2018-02-13T00:42:06.856Z,0.00
2018-02-13T00:43:06.826Z,0.00
2018-02-13T00:44:06.808Z,0.00
2018-02-13T00:45:06.784Z,0.00
2018-02-13T00:46:06.770Z,0.00
2018-02-13T00:47:06.747Z,0.00
2018-02-13T00:48:06.709Z,0.00
2018-02-13T00:49:06.687Z,0.00
2018-02-13T00:50:06.665Z,0.00
2018-02-13T00:51:06.636Z,0.00
2018-02-13T00:52:06.611Z,0.00
2018-02-13T00:53:06.596Z,0.00
2018-02-13T00:54:06.578Z,0.00
2018-02-13T00:55:06.547Z,0.00
2018-02-13T00:56:06.529Z,0.00
2018-02-13T00:57:06.498Z,0.00
2018-02-13T00:58:06.486Z,0.00
2018-02-13T00:59:06.444Z,0.00
2018-02-13T01:00:06.421Z,0.00
2018-02-13T01:01:06.399Z,0.00
2018-02-13T01:02:06.377Z,0.00
2018-02-13T01:03:06.371Z,0.00
2018-02-13T01:04:06.326Z,0.00
2018-02-13T01:05:06.311Z,0.00
2018-02-13T01:06:06.282Z,0.00
2018-02-13T01:07:06.256Z,0.00
2018-02-13T01:08:06.239Z,0.00
2018-02-13T01:09:06.207Z,0.00
2018-02-13T01:10:06.198Z,0.00
2018-02-13T01:11:06.165Z,0.00
2018-02-13T01:12:06.147Z,0.00
2018-02-13T01:13:06.118Z,0.00
2018-02-13T01:14:06.094Z,0.00
2018-02-13T01:15:06.067Z,0.00
2018-02-13T01:16:06.054Z,0.00
2018-02-13T01:17:06.017Z,0.00
2018-02-13T01:18:05.996Z,0.00
2018-02-13T01:19:05.976Z,0.00
2018-02-13T01:20:05.954Z,0.00
2018-02-13T01:21:05.930Z,0.00
2018-02-13T01:22:05.903Z,0.00
2018-02-13T01:23:05.880Z,0.00
2018-02-13T01:24:05.856Z,0.00
2018-02-13T01:25:05.831Z,0.00
2018-02-13T01:26:05.808Z,0.00
2018-02-13T01:27:05.786Z,0.00
2018-02-13T01:28:05.757Z,0.00
2018-02-13T01:29:05.735Z,0.00
2018-02-13T01:30:05.714Z,0.00
2018-02-13T01:31:05.698Z,0.00
2018-02-13T01:32:05.664Z,0.00
2018-02-13T01:33:05.644Z,0.00
2018-02-13T01:34:05.617Z,0.00
2018-02-13T01:35:05.593Z,0.00
2018-02-13T01:36:05.577Z,0.00
2018-02-13T01:37:05.550Z,0.00
2018-02-13T01:38:05.521Z,0.00
2018-02-13T01:39:05.502Z,0.00
2018-02-13T01:40:05.474Z,0.00
2018-02-13T01:41:05.453Z,0.00
2018-02-13T01:42:05.426Z,0.00
2018-02-13T01:43:05.406Z,0.00
2018-02-13T01:44:05.377Z,0.00
2018-02-13T01:45:05.355Z,0.00
2018-02-13T01:46:05.330Z,0.00
2018-02-13T01:47:05.308Z,0.00
2018-02-13T01:48:05.281Z,0.00
2018-02-13T01:49:05.268Z,0.00
2018-02-13T01:50:05.243Z,0.00
2018-02-13T01:51:05.214Z,0.00
2018-02-13T01:52:05.193Z,0.00
2018-02-13T01:53:05.166Z,0.00
2018-02-13T01:54:05.144Z,0.00
2018-02-13T01:55:05.116Z,0.00
2018-02-13T01:56:05.101Z,0.00
2018-02-13T01:57:05.069Z,0.00
2018-02-13T01:58:05.048Z,0.00
2018-02-13T01:59:05.023Z,0.00
2018-02-13T02:00:04.997Z,0.00
2018-02-13T02:01:04.974Z,0.00
2018-02-13T02:02:04.951Z,0.00
2018-02-13T02:03:04.931Z,0.00
2018-02-13T02:04:04.902Z,0.00
2018-02-13T02:05:04.877Z,0.00
2018-02-13T02:06:04.856Z,0.00
2018-02-13T02:07:04.832Z,0.00
2018-02-13T02:08:04.807Z,0.00
2018-02-13T02:09:04.784Z,0.00
2018-02-13T02:10:04.760Z,0.00
2018-02-13T02:11:04.736Z,0.00
2018-02-13T02:12:04.711Z,0.00
2018-02-13T02:13:04.688Z,0.00
2018-02-13T02:14:04.663Z,0.00
2018-02-13T02:15:04.639Z,0.00
2018-02-13T02:16:04.617Z,0.00
2018-02-13T02:17:04.593Z,0.00
2018-02-13T02:18:04.567Z,0.00
2018-02-13T02:19:04.543Z,0.00
2018-02-13T02:20:04.526Z,0.00
2018-02-13T02:21:04.495Z,0.00
2018-02-13T02:22:04.473Z,0.00
2018-02-13T02:23:04.448Z,0.00
2018-02-13T02:24:04.426Z,0.00
2018-02-13T02:25:04.397Z,0.00
2018-02-13T02:26:04.377Z,0.00
2018-02-13T02:27:04.356Z,0.00
2018-02-13T02:28:04.326Z,0.00
2018-02-13T02:29:04.307Z,0.00
2018-02-13T02:30:04.287Z,0.00
2018-02-13T02:31:04.257Z,0.00
2018-02-13T02:32:04.234Z,0.00
2018-02-13T02:33:04.207Z,0.00
2018-02-13T02:34:04.182Z,0.00
2018-02-13T02:35:04.159Z,0.00
2018-02-13T02:36:04.137Z,0.00
2018-02-13T02:37:04.109Z,0.00
2018-02-13T02:38:04.084Z,0.00
2018-02-13T02:39:04.066Z,0.00
2018-02-13T02:40:04.040Z,0.00
2018-02-13T02:41:04.014Z,0.00
2018-02-13T02:42:03.998Z,0.00
2018-02-13T02:43:03.966Z,0.00
2018-02-13T02:44:03.941Z,0.00
2018-02-13T02:45:03.921Z,0.00
2018-02-13T02:46:03.893Z,0.00
2018-02-13T02:47:03.871Z,0.00
2018-02-13T02:48:03.851Z,0.00
2018-02-13T02:49:03.826Z,0.00
2018-02-13T02:50:03.797Z,0.00
2018-02-13T02:51:03.774Z,0.00
2018-02-13T02:52:03.752Z,0.00
2018-02-13T02:53:03.732Z,0.00
2018-02-13T02:54:03.704Z,0.00
2018-02-13T02:55:03.679Z,0.00
2018-02-13T02:56:03.656Z,0.00
2018-02-13T02:57:03.633Z,0.00
2018-02-13T02:58:03.606Z,0.00
2018-02-13T02:59:03.586Z,0.00
2018-02-13T03:00:03.561Z,0.00
2018-02-13T03:01:03.536Z,0.00
2018-02-13T03:02:03.513Z,0.00
2018-02-13T03:03:03.487Z,0.00
2018-02-13T03:04:03.464Z,0.00
2018-02-13T03:05:03.446Z,0.00
2018-02-13T03:06:03.416Z,0.00
2018-02-13T03:07:03.398Z,0.00
2018-02-13T03:08:03.367Z,0.00
2018-02-13T03:09:03.346Z,0.00
2018-02-13T03:10:03.326Z,0.00
2018-02-13T03:11:03.299Z,0.00
2018-02-13T03:12:03.274Z,0.00
2018-02-13T03:13:03.251Z,0.00
2018-02-13T03:14:03.227Z,0.00
2018-02-13T03:15:03.203Z,0.00
2018-02-13T03:16:03.182Z,0.00
2018-02-13T03:17:03.155Z,0.00
2018-02-13T03:18:03.131Z,0.00
2018-02-13T03:19:03.108Z,0.00
2018-02-13T03:20:03.085Z,0.00
2018-02-13T03:21:03.057Z,0.00
2018-02-13T03:22:03.037Z,0.00
2018-02-13T03:23:03.020Z,0.00
2018-02-13T03:24:02.987Z,0.00
2018-02-13T03:25:02.965Z,0.00
2018-02-13T03:26:02.941Z,0.00
2018-02-13T03:27:02.915Z,0.00
2018-02-13T03:28:02.894Z,0.00
2018-02-13T03:29:02.867Z,0.00
2018-02-13T03:30:02.848Z,0.00
2018-02-13T03:31:02.822Z,0.00
2018-02-13T03:32:02.799Z,0.00
2018-02-13T03:33:02.781Z,0.00
2018-02-13T03:34:02.751Z,0.00
2018-02-13T03:35:02.731Z,0.00
2018-02-13T03:36:02.703Z,0.00
2018-02-13T03:37:02.676Z,0.00
2018-02-13T03:38:02.655Z,0.00
2018-02-13T03:39:02.632Z,0.00
2018-02-13T03:40:02.606Z,0.00
2018-02-13T03:41:02.585Z,0.00
2018-02-13T03:42:02.558Z,0.00
2018-02-13T03:43:02.536Z,0.00
2018-02-13T03:44:02.516Z,0.00
2018-02-13T03:45:02.490Z,0.00
2018-02-13T03:46:02.465Z,0.00
2018-02-13T03:47:02.442Z,0.00
2018-02-13T03:48:02.417Z,0.00
2018-02-13T03:49:02.394Z,0.00
2018-02-13T03:50:02.367Z,0.00
2018-02-13T03:51:02.345Z,0.00
2018-02-13T03:52:02.325Z,0.00
2018-02-13T03:53:02.300Z,0.00
2018-02-13T03:54:02.274Z,0.00
2018-02-13T03:55:02.247Z,0.00
2018-02-13T03:56:02.226Z,0.00
2018-02-13T03:57:02.203Z,0.00
2018-02-13T03:58:02.181Z,0.00
2018-02-13T03:59:02.155Z,0.00
2018-02-13T04:00:02.132Z,0.00
2018-02-13T04:01:02.104Z,0.00
2018-02-13T04:02:02.083Z,0.00
2018-02-13T04:03:02.057Z,0.00
2018-02-13T04:04:02.034Z,0.00
2018-02-13T04:05:02.013Z,0.00
2018-02-13T04:06:01.987Z,0.00
2018-02-13T04:07:01.973Z,0.00
2018-02-13T04:08:01.938Z,0.00
2018-02-13T04:09:01.921Z,0.00
2018-02-13T04:10:01.892Z,0.00
2018-02-13T04:11:01.880Z,0.00
2018-02-13T04:12:01.845Z,0.00
2018-02-13T04:13:01.818Z,0.00
2018-02-13T04:14:01.803Z,0.00
2018-02-13T04:15:01.783Z,0.00
2018-02-13T04:16:01.749Z,0.00
2018-02-13T04:17:01.730Z,0.00
2018-02-13T04:18:01.700Z,0.00
2018-02-13T04:19:01.683Z,0.00
2018-02-13T04:20:01.655Z,0.00
2018-02-13T04:21:01.632Z,0.00
2018-02-13T04:22:01.608Z,0.00
2018-02-13T04:23:01.587Z,0.00
2018-02-13T04:24:01.557Z,0.00
2018-02-13T04:25:01.535Z,0.00
2018-02-13T04:26:01.511Z,0.00
2018-02-13T04:27:01.489Z,0.00
2018-02-13T04:28:01.461Z,0.00
2018-02-13T04:29:01.438Z,0.00
2018-02-13T04:30:01.415Z,0.00
2018-02-13T04:31:01.394Z,0.00
2018-02-13T04:32:01.366Z,0.00
2018-02-13T04:33:01.345Z,0.00
2018-02-13T04:34:01.321Z,0.00
2018-02-13T04:35:01.298Z,0.00
2018-02-13T04:36:01.272Z,0.00
2018-02-13T04:37:01.247Z,0.00
2018-02-13T04:38:01.228Z,0.00
2018-02-13T04:39:01.206Z,0.00
2018-02-13T04:40:01.176Z,0.00
2018-02-13T04:41:01.155Z,0.00
2018-02-13T04:42:01.136Z,0.00
2018-02-13T04:43:01.107Z,0.00
2018-02-13T04:44:01.085Z,0.00
2018-02-13T04:45:01.060Z,0.00
2018-02-13T04:46:01.037Z,0.00
2018-02-13T04:47:01.015Z,0.00
2018-02-13T04:48:00.990Z,0.00
2018-02-13T04:49:00.963Z,0.00
2018-02-13T04:50:00.938Z,0.00
2018-02-13T04:51:00.915Z,0.00
2018-02-13T04:52:00.892Z,0.00
2018-02-13T04:53:00.867Z,0.00
2018-02-13T04:54:00.895Z,0.00
2018-02-13T04:55:00.820Z,0.00
2018-02-13T04:56:00.798Z,0.00
2018-02-13T04:57:00.772Z,0.00
2018-02-13T04:58:00.750Z,0.00
2018-02-13T04:59:00.728Z,0.00
2018-02-13T05:00:00.702Z,0.00
2018-02-13T05:01:00.703Z,0.00
2018-02-13T05:02:00.662Z,0.00
2018-02-13T05:03:00.627Z,0.00
2018-02-13T05:04:00.606Z,0.00
2018-02-13T05:05:00.582Z,0.00
2018-02-13T05:06:00.555Z,0.00
2018-02-13T05:07:00.532Z,0.00
2018-02-13T05:08:00.511Z,0.00
2018-02-13T05:09:00.486Z,0.00
2018-02-13T05:10:00.778Z,0.00
2018-02-13T05:11:00.438Z,0.00
2018-02-13T05:12:00.419Z,0.00
2018-02-13T05:13:00.394Z,0.00
2018-02-13T05:14:00.375Z,0.00
2018-02-13T05:15:00.344Z,0.00
2018-02-13T05:16:00.321Z,0.00
2018-02-13T05:17:00.319Z,0.00
2018-02-13T05:18:00.271Z,0.00
2018-02-13T05:19:00.247Z,0.00
2018-02-13T05:20:00.224Z,0.00
2018-02-13T05:21:00.198Z,0.00
2018-02-13T05:22:00.175Z,0.00
2018-02-13T05:23:00.157Z,0.00
2018-02-13T05:24:00.127Z,0.00
2018-02-13T05:25:00.106Z,0.00
2018-02-13T05:26:00.082Z,0.00
2018-02-13T05:27:00.055Z,0.00
2018-02-13T05:28:00.036Z,0.00
2018-02-13T05:29:00.011Z,0.00
2018-02-13T05:29:59.987Z,0.00
2018-02-13T05:30:59.962Z,0.00
2018-02-13T05:31:59.935Z,0.00
2018-02-13T05:32:59.915Z,0.00
2018-02-13T05:33:59.890Z,0.00
2018-02-13T05:34:59.867Z,0.00
2018-02-13T05:35:59.843Z,0.00
2018-02-13T05:36:59.817Z,0.00
2018-02-13T05:37:59.792Z,0.00
2018-02-13T05:38:59.772Z,0.00
2018-02-13T05:40:00.066Z,0.00
2018-02-13T05:40:59.721Z,0.00
2018-02-13T05:41:59.697Z,0.00
2018-02-13T05:42:59.676Z,0.00
2018-02-13T05:43:59.654Z,0.00
2018-02-13T05:44:59.631Z,0.00
2018-02-13T05:45:59.606Z,0.00
2018-02-13T05:46:59.591Z,0.00
2018-02-13T05:47:59.554Z,0.00
2018-02-13T05:48:59.532Z,0.00
2018-02-13T05:49:59.504Z,0.00
2018-02-13T05:50:59.535Z,0.00
2018-02-13T05:51:59.462Z,0.00
2018-02-13T05:52:59.432Z,0.00
2018-02-13T05:53:59.416Z,0.00
2018-02-13T05:54:59.387Z,0.00
2018-02-13T05:55:59.368Z,0.00
2018-02-13T05:56:59.345Z,0.00
2018-02-13T05:57:59.322Z,0.00
2018-02-13T05:58:59.298Z,0.00
2018-02-13T05:59:59.264Z,0.00
2018-02-13T06:00:59.238Z,0.00
2018-02-13T06:01:59.220Z,0.00
2018-02-13T06:02:59.192Z,0.00
2018-02-13T06:03:59.169Z,0.00
2018-02-13T06:04:59.144Z,0.00
2018-02-13T06:05:59.121Z,0.00
2018-02-13T06:06:59.101Z,0.00
2018-02-13T06:07:59.072Z,0.00
2018-02-13T06:08:59.052Z,0.00
2018-02-13T06:09:59.026Z,0.00
2018-02-13T06:10:59.001Z,0.00
2018-02-13T06:11:58.978Z,0.00
2018-02-13T06:12:58.954Z,0.00
2018-02-13T06:13:58.930Z,0.00
2018-02-13T06:14:58.911Z,0.00
2018-02-13T06:15:58.883Z,0.00
2018-02-13T06:16:58.856Z,0.00
2018-02-13T06:17:58.835Z,0.00
2018-02-13T06:18:58.811Z,0.00
2018-02-13T06:19:58.790Z,0.00
2018-02-13T06:20:58.764Z,0.00
2018-02-13T06:21:58.735Z,0.00
2018-02-13T06:22:58.711Z,0.00
2018-02-13T06:23:58.686Z,0.00
2018-02-13T06:24:58.678Z,0.00
2018-02-13T06:25:58.643Z,0.00
2018-02-13T06:26:58.620Z,0.00
2018-02-13T06:27:58.596Z,0.00
2018-02-13T06:28:58.566Z,4.00
2018-02-13T06:29:58.544Z,0.00
2018-02-13T06:30:58.529Z,0.00
2018-02-13T06:31:58.501Z,4.00
2018-02-13T06:32:58.785Z,0.00
2018-02-13T06:33:58.448Z,0.00
2018-02-13T06:34:58.431Z,4.00
2018-02-13T06:35:58.399Z,4.00
2018-02-13T06:36:58.377Z,4.00
2018-02-13T06:37:58.357Z,4.00
2018-02-13T06:38:58.328Z,8.00
2018-02-13T06:39:58.301Z,8.00
2018-02-13T06:40:58.279Z,8.00
2018-02-13T06:41:58.263Z,8.00
2018-02-13T06:42:58.231Z,8.00
2018-02-13T06:43:58.207Z,12.00
2018-02-13T06:44:58.184Z,12.00
2018-02-13T06:45:58.160Z,12.00
2018-02-13T06:46:58.139Z,12.00
2018-02-13T06:47:58.114Z,12.00
2018-02-13T06:48:58.088Z,16.00
2018-02-13T06:49:58.063Z,16.00
2018-02-13T06:50:58.042Z,16.00
2018-02-13T06:51:58.017Z,16.00
2018-02-13T06:52:57.994Z,20.00
2018-02-13T06:53:57.969Z,24.00
2018-02-13T06:54:57.944Z,20.00
2018-02-13T06:55:57.923Z,24.00
2018-02-13T06:56:57.897Z,28.00
2018-02-13T06:57:57.873Z,28.00
2018-02-13T06:58:57.847Z,32.00
2018-02-13T06:59:57.824Z,32.00
2018-02-13T07:00:57.797Z,36.00
2018-02-13T07:01:57.773Z,36.00
2018-02-13T07:02:57.754Z,36.00
2018-02-13T07:03:57.728Z,44.00
2018-02-13T07:04:57.702Z,44.00
2018-02-13T07:05:57.677Z,44.00
2018-02-13T07:06:57.654Z,48.00
2018-02-13T07:07:57.642Z,48.00
2018-02-13T07:08:57.604Z,52.00
2018-02-13T07:09:57.581Z,56.00
2018-02-13T07:10:57.857Z,60.00
2018-02-13T07:11:57.533Z,60.00
2018-02-13T07:12:57.507Z,60.00
2018-02-13T07:13:57.484Z,64.00
2018-02-13T07:14:57.460Z,64.00
2018-02-13T07:15:57.438Z,68.00
2018-02-13T07:16:57.423Z,72.00
2018-02-13T07:17:57.387Z,76.00
2018-02-13T07:18:57.369Z,76.00
2018-02-13T07:19:57.344Z,76.00
2018-02-13T07:20:57.316Z,80.00
2018-02-13T07:21:57.293Z,80.00
2018-02-13T07:22:57.267Z,84.00
2018-02-13T07:23:57.246Z,84.00
2018-02-13T07:24:57.223Z,92.00
2018-02-13T07:25:57.197Z,96.00
2018-02-13T07:26:57.183Z,96.00
2018-02-13T07:27:57.151Z,96.00
2018-02-13T07:28:57.129Z,100.00
2018-02-13T07:29:57.104Z,104.00
2018-02-13T07:30:57.078Z,108.00
2018-02-13T07:31:57.056Z,108.00
2018-02-13T07:32:57.027Z,112.00
2018-02-13T07:33:57.011Z,112.00
2018-02-13T07:34:56.983Z,116.00
2018-02-13T07:35:56.957Z,120.00
2018-02-13T07:36:56.931Z,124.00
2018-02-13T07:37:56.907Z,128.00
2018-02-13T07:38:56.883Z,132.00
2018-02-13T07:39:56.857Z,132.00
2018-02-13T07:40:56.834Z,136.00
2018-02-13T07:41:56.816Z,136.00
2018-02-13T07:42:56.790Z,140.00
2018-02-13T07:43:56.770Z,140.00
2018-02-13T07:44:56.741Z,144.00
2018-02-13T07:45:56.715Z,144.00
2018-02-13T07:46:56.691Z,152.00
2018-02-13T07:47:56.669Z,152.00
2018-02-13T07:48:56.643Z,156.00
2018-02-13T07:49:56.618Z,156.00
2018-02-13T07:50:56.603Z,156.00
2018-02-13T07:51:56.568Z,160.00
2018-02-13T07:52:56.548Z,164.00
2018-02-13T07:53:56.523Z,168.00
2018-02-13T07:54:56.499Z,168.00
2018-02-13T07:55:56.471Z,172.00
2018-02-13T07:56:56.448Z,172.00
2018-02-13T07:57:56.427Z,172.00
2018-02-13T07:58:56.398Z,176.00
2018-02-13T07:59:56.380Z,180.00
2018-02-13T08:00:56.356Z,180.00
2018-02-13T08:01:56.330Z,184.00
2018-02-13T08:02:56.302Z,184.00
2018-02-13T08:03:56.286Z,184.00
2018-02-13T08:04:56.267Z,192.00
2018-02-13T08:05:56.231Z,196.00
2018-02-13T08:06:56.205Z,196.00
2018-02-13T08:07:56.181Z,200.00
2018-02-13T08:08:56.158Z,204.00
2018-02-13T08:09:56.133Z,204.00
2018-02-13T08:10:56.116Z,208.00
2018-02-13T08:11:56.087Z,208.00
2018-02-13T08:12:56.063Z,212.00
2018-02-13T08:13:56.037Z,212.00
2018-02-13T08:14:56.031Z,216.00
2018-02-13T08:15:55.990Z,220.00
2018-02-13T08:16:55.979Z,220.00
2018-02-13T08:17:55.944Z,224.00
2018-02-13T08:18:55.919Z,228.00
2018-02-13T08:19:55.896Z,228.00
2018-02-13T08:20:55.874Z,228.00
2018-02-13T08:21:55.849Z,232.00
2018-02-13T08:22:55.826Z,236.00
2018-02-13T08:23:55.800Z,232.00
2018-02-13T08:24:55.779Z,236.00
2018-02-13T08:25:55.756Z,236.00
2018-02-13T08:26:55.727Z,240.00
2018-02-13T08:27:55.705Z,240.00
2018-02-13T08:28:55.680Z,240.00
2018-02-13T08:29:55.657Z,244.00
2018-02-13T08:30:55.632Z,248.00
2018-02-13T08:31:55.619Z,248.00
2018-02-13T08:32:55.585Z,252.00
2018-02-13T08:33:55.564Z,256.00
2018-02-13T08:34:55.541Z,256.00
2018-02-13T08:35:55.517Z,264.00
2018-02-13T08:36:55.486Z,264.00
2018-02-13T08:37:55.466Z,268.00
2018-02-13T08:38:55.446Z,268.00
2018-02-13T08:39:55.426Z,268.00
2018-02-13T08:40:55.399Z,268.00
2018-02-13T08:41:55.368Z,272.00
2018-02-13T08:42:55.345Z,272.00
2018-02-13T08:43:55.323Z,272.00
2018-02-13T08:44:55.296Z,272.00
2018-02-13T08:45:55.271Z,276.00
2018-02-13T08:46:55.248Z,276.00
2018-02-13T08:47:55.224Z,280.00
2018-02-13T08:48:55.208Z,280.00
2018-02-13T08:49:55.177Z,280.00
2018-02-13T08:50:55.155Z,280.00
2018-02-13T08:51:55.130Z,284.00
2018-02-13T08:52:55.111Z,292.00
2018-02-13T08:53:55.079Z,288.00
2018-02-13T08:54:55.058Z,292.00
2018-02-13T08:55:55.039Z,296.00
2018-02-13T08:56:55.014Z,300.00
2018-02-13T08:57:54.982Z,300.00
2018-02-13T08:58:54.962Z,304.00
2018-02-13T08:59:54.937Z,304.00
2018-02-13T09:00:54.913Z,304.00
2018-02-13T09:01:54.891Z,308.00
2018-02-13T09:02:54.868Z,308.00
2018-02-13T09:03:54.851Z,312.00
2018-02-13T09:04:54.818Z,316.00
2018-02-13T09:05:54.798Z,316.00
2018-02-13T09:06:54.781Z,324.00
2018-02-13T09:07:54.747Z,328.00
2018-02-13T09:08:54.722Z,336.00
2018-02-13T09:09:54.700Z,340.00
2018-02-13T09:10:54.678Z,340.00
2018-02-13T09:11:54.663Z,344.00
2018-02-13T09:12:54.630Z,348.00
2018-02-13T09:13:54.607Z,356.00
2018-02-13T09:14:54.585Z,364.00
2018-02-13T09:15:54.556Z,368.00
2018-02-13T09:16:54.539Z,372.00
2018-02-13T09:17:54.518Z,380.00
2018-02-13T09:18:54.486Z,384.00
2018-02-13T09:19:54.473Z,392.00
2018-02-13T09:20:54.437Z,400.00
2018-02-13T09:21:54.418Z,404.00
2018-02-13T09:22:54.402Z,412.00
2018-02-13T09:23:54.405Z,416.00
2018-02-13T09:24:54.351Z,420.00
2018-02-13T09:25:54.323Z,428.00
2018-02-13T09:26:54.302Z,436.00
2018-02-13T09:27:54.275Z,436.00
2018-02-13T09:28:54.251Z,444.00
2018-02-13T09:29:54.224Z,452.00
2018-02-13T09:30:54.207Z,460.00
2018-02-13T09:31:54.181Z,468.00
2018-02-13T09:32:54.158Z,472.00
2018-02-13T09:33:54.142Z,476.00
2018-02-13T09:34:54.111Z,480.00
2018-02-13T09:35:54.088Z,488.00
2018-02-13T09:36:54.058Z,496.00
2018-02-13T09:37:54.037Z,500.00
2018-02-13T09:38:54.010Z,504.00
2018-02-13T09:39:53.990Z,512.00
2018-02-13T09:40:53.966Z,524.00
2018-02-13T09:41:53.944Z,528.00
2018-02-13T09:42:53.927Z,536.00
2018-02-13T09:43:53.907Z,544.00
2018-02-13T09:44:53.871Z,544.00
2018-02-13T09:45:53.847Z,552.00
2018-02-13T09:46:53.830Z,556.00
2018-02-13T09:47:53.799Z,560.00
2018-02-13T09:48:53.776Z,568.00
2018-02-13T09:49:53.752Z,572.00
2018-02-13T09:50:53.731Z,576.00
2018-02-13T09:51:53.709Z,584.00
2018-02-13T09:52:53.679Z,584.00
2018-02-13T09:53:53.675Z,592.00
2018-02-13T09:54:53.639Z,596.00
2018-02-13T09:55:53.614Z,604.00
2018-02-13T09:56:53.598Z,608.00
2018-02-13T09:57:53.566Z,616.00
2018-02-13T09:58:53.556Z,620.00
2018-02-13T09:59:53.532Z,624.00
2018-02-13T10:00:53.497Z,632.00
2018-02-13T10:01:53.475Z,636.00
2018-02-13T10:02:53.450Z,640.00
2018-02-13T10:03:53.430Z,648.00
2018-02-13T10:04:53.402Z,664.00
2018-02-13T10:05:53.386Z,676.00
2018-02-13T10:06:53.374Z,688.00
2018-02-13T10:07:53.331Z,704.00
2018-02-13T10:08:53.310Z,724.00
2018-02-13T10:09:53.287Z,744.00
2018-02-13T10:10:53.274Z,768.00
2018-02-13T10:11:53.239Z,784.00
2018-02-13T10:12:53.214Z,804.00
2018-02-13T10:13:53.188Z,824.00
2018-02-13T10:14:53.169Z,832.00
2018-02-13T10:15:53.150Z,848.00
2018-02-13T10:16:53.130Z,852.00
2018-02-13T10:17:53.098Z,856.00
2018-02-13T10:18:53.076Z,860.00
2018-02-13T10:19:53.053Z,864.00
2018-02-13T10:20:53.027Z,872.00
2018-02-13T10:21:53.009Z,872.00
2018-02-13T10:22:52.977Z,880.00
2018-02-13T10:23:52.956Z,884.00
2018-02-13T10:24:52.932Z,892.00
2018-02-13T10:25:52.910Z,888.00
2018-02-13T10:26:52.886Z,896.00
2018-02-13T10:27:52.865Z,896.00
2018-02-13T10:28:52.840Z,900.00
2018-02-13T10:29:52.816Z,904.00
2018-02-13T10:30:52.796Z,904.00
2018-02-13T10:31:52.775Z,904.00
2018-02-13T10:32:52.746Z,904.00
2018-02-13T10:33:52.725Z,912.00
2018-02-13T10:34:52.705Z,912.00
2018-02-13T10:35:52.679Z,912.00
2018-02-13T10:36:52.656Z,912.00
2018-02-13T10:37:52.632Z,920.00
2018-02-13T10:38:52.608Z,920.00
2018-02-13T10:39:52.586Z,920.00
2018-02-13T10:40:52.566Z,928.00
2018-02-13T10:41:52.543Z,932.00
2018-02-13T10:42:52.515Z,932.00
2018-02-13T10:43:52.496Z,940.00
2018-02-13T10:44:52.476Z,944.00
2018-02-13T10:45:52.452Z,952.00
2018-02-13T10:46:52.426Z,948.00
2018-02-13T10:47:52.403Z,964.00
2018-02-13T10:48:52.390Z,976.00
2018-02-13T10:49:52.358Z,980.00
2018-02-13T10:50:52.333Z,988.00
2018-02-13T10:51:52.313Z,996.00
2018-02-13T10:52:52.296Z,1008.00
2018-02-13T10:53:52.265Z,1012.00
2018-02-13T10:54:52.242Z,1020.00
2018-02-13T10:55:52.222Z,1032.00
2018-02-13T10:56:52.196Z,1036.00
2018-02-13T10:57:52.172Z,1048.00
2018-02-13T10:58:52.154Z,1056.00
2018-02-13T10:59:52.133Z,1064.00
2018-02-13T11:00:52.106Z,1064.00
2018-02-13T11:01:52.093Z,1076.00
2018-02-13T11:02:52.063Z,1084.00
2018-02-13T11:03:52.046Z,1092.00
2018-02-13T11:04:52.021Z,1100.00
2018-02-13T11:05:51.995Z,1100.00
2018-02-13T11:06:51.983Z,1072.00
2018-02-13T11:07:51.954Z,1104.00
2018-02-13T11:08:51.928Z,1112.00
2018-02-13T11:09:51.908Z,1124.00
2018-02-13T11:10:51.890Z,1132.00
2018-02-13T11:11:51.861Z,1144.00
2018-02-13T11:12:51.838Z,1148.00
2018-02-13T11:13:51.828Z,1144.00
2018-02-13T11:14:51.792Z,1160.00
2018-02-13T11:15:51.768Z,1176.00
2018-02-13T11:16:51.747Z,1184.00
2018-02-13T11:17:51.726Z,1188.00
2018-02-13T11:18:51.710Z,1196.00
2018-02-13T11:19:51.711Z,1220.00
2018-02-13T11:20:51.654Z,1228.00
2018-02-13T11:21:51.639Z,1244.00
2018-02-13T11:22:51.612Z,1248.00
2018-02-13T11:23:51.649Z,1260.00
2018-02-13T11:24:51.567Z,1252.00
2018-02-13T11:25:51.545Z,1272.00
2018-02-13T11:26:51.523Z,1288.00
2018-02-13T11:27:51.502Z,1292.00
2018-02-13T11:28:51.476Z,1296.00
2018-02-13T11:29:51.456Z,1308.00
2018-02-13T11:30:51.433Z,1320.00
2018-02-13T11:31:51.409Z,1324.00
2018-02-13T11:32:51.402Z,1336.00
2018-02-13T11:33:51.364Z,1372.00
2018-02-13T11:34:51.346Z,1360.00
2018-02-13T11:35:51.319Z,1360.00
2018-02-13T11:36:51.296Z,1016.00
2018-02-13T11:37:51.274Z,1204.00
2018-02-13T11:38:51.254Z,1364.00
2018-02-13T11:39:51.230Z,1392.00
2018-02-13T11:40:51.209Z,440.00
2018-02-13T11:41:51.186Z,1312.00
2018-02-13T11:42:51.163Z,1416.00
2018-02-13T11:43:51.142Z,1452.00
2018-02-13T11:44:51.118Z,460.00
2018-02-13T11:45:51.107Z,1480.00
2018-02-13T11:46:51.076Z,1488.00
2018-02-13T11:47:51.058Z,1500.00
2018-02-13T11:48:51.036Z,1440.00
2018-02-13T11:49:51.013Z,1456.00
2018-02-13T11:50:50.990Z,1472.00
2018-02-13T11:51:50.968Z,1524.00
2018-02-13T11:52:50.942Z,464.00
2018-02-13T11:53:50.925Z,1508.00
2018-02-13T11:54:50.903Z,384.00
2018-02-13T11:55:50.882Z,1524.00
2018-02-13T11:56:50.899Z,1512.00
2018-02-13T11:57:50.845Z,1508.00
2018-02-13T11:58:50.818Z,1500.00
2018-02-13T11:59:50.800Z,1488.00
2018-02-13T12:00:50.768Z,1492.00
2018-02-13T12:01:50.748Z,1476.00
2018-02-13T12:02:50.777Z,1484.00
2018-02-13T12:03:50.703Z,1500.00
2018-02-13T12:04:50.679Z,1500.00
2018-02-13T12:05:50.657Z,1508.00
2018-02-13T12:06:50.633Z,1508.00
2018-02-13T12:07:50.617Z,1504.00
2018-02-13T12:08:50.590Z,1508.00
2018-02-13T12:09:50.566Z,1516.00
2018-02-13T12:10:50.548Z,1508.00
2018-02-13T12:11:50.526Z,1508.00
2018-02-13T12:12:50.505Z,1496.00
2018-02-13T12:13:50.482Z,1488.00
2018-02-13T12:14:50.461Z,1488.00
2018-02-13T12:15:50.436Z,1488.00
2018-02-13T12:16:50.417Z,1480.00
2018-02-13T12:17:50.397Z,1464.00
2018-02-13T12:18:50.389Z,1448.00
2018-02-13T12:19:50.354Z,1444.00
2018-02-13T12:20:50.330Z,1440.00
2018-02-13T12:21:50.307Z,1436.00
2018-02-13T12:22:50.287Z,1428.00
2018-02-13T12:23:50.268Z,1424.00
2018-02-13T12:24:50.245Z,1416.00
2018-02-13T12:25:50.216Z,1404.00
2018-02-13T12:26:50.197Z,1404.00
2018-02-13T12:27:50.176Z,1392.00
2018-02-13T12:28:50.155Z,1384.00
2018-02-13T12:29:50.132Z,1376.00
2018-02-13T12:30:50.115Z,1364.00
2018-02-13T12:31:50.107Z,1360.00
2018-02-13T12:32:50.068Z,1348.00
2018-02-13T12:33:50.050Z,1364.00
2018-02-13T12:34:50.045Z,764.00
2018-02-13T12:35:50.004Z,1340.00
2018-02-13T12:36:49.982Z,1348.00
2018-02-13T12:37:49.957Z,1352.00
2018-02-13T12:38:49.937Z,1348.00
2018-02-13T12:39:49.919Z,1348.00
2018-02-13T12:40:49.894Z,1344.00
2018-02-13T12:41:49.867Z,1344.00
2018-02-13T12:42:49.847Z,1344.00
2018-02-13T12:43:49.830Z,1340.00
2018-02-13T12:44:49.815Z,1340.00
2018-02-13T12:45:49.792Z,1332.00
2018-02-13T12:46:49.761Z,1340.00
2018-02-13T12:47:49.738Z,1344.00
2018-02-13T12:48:49.718Z,1328.00
2018-02-13T12:49:49.698Z,1312.00
2018-02-13T12:50:49.672Z,1296.00